Ashaiiu, Virginia
Current Conditions -  °F | °C
As of 7:54 AM on Tuesday 21 Oct 2014 (Local Time) from KOFP Reporting Station
Few Clouds Few Clouds  
Wind Chill: 53°   Ceiling: Unl
Heat Index: 53°   Visibility: 10mi
Dew Point: 49°   Wind: 0mph
Humidity: 86%   Direction: NA
Pressure: 29.9"   Gusts: NA
Location:  37.7534°N, 77.495°W
Report Text: KOFP 211154Z AUTO 00000KT 10SM FEW110 12/09 A2990 RMK AO2 SLP125 T01170094 10139 20106 53004
Loading
Personal Weather Stations






























Interactive Weather Map
Tropical Storm Tracking
New forecast layout! Learn more

10-Day Weather Forecast

Advertisements
Track Severe Weather on mobile